sensor_id;sensor_type;location;lat;lon;timestamp;pressure;altitude;pressure_sealevel;temperature;humidity
48027;BME280;50714;49.208;5.364;2022-10-17T00:00:30;99653.84;;;15.85;98.08
48027;BME280;50714;49.208;5.364;2022-10-17T00:10:30;99645.34;;;15.81;98.23
48027;BME280;50714;49.208;5.364;2022-10-17T00:20:34;99646.50;;;15.85;98.78
48027;BME280;50714;49.208;5.364;2022-10-17T00:30:34;99633.41;;;15.94;98.85
48027;BME280;50714;49.208;5.364;2022-10-17T00:40:35;99661.94;;;16.03;98.85
48027;BME280;50714;49.208;5.364;2022-10-17T00:50:37;99670.72;;;16.05;98.45
48027;BME280;50714;49.208;5.364;2022-10-17T01:00:40;99660.84;;;15.92;97.52
48027;BME280;50714;49.208;5.364;2022-10-17T01:31:21;99685.56;;;15.79;98.54
48027;BME280;50714;49.208;5.364;2022-10-17T01:41:40;99685.56;;;15.79;97.86
48027;BME280;50714;49.208;5.364;2022-10-17T01:51:48;99683.41;;;15.69;97.41
48027;BME280;50714;49.208;5.364;2022-10-17T02:01:52;99679.41;;;15.54;97.11
48027;BME280;50714;49.208;5.364;2022-10-17T02:22:13;99661.94;;;15.31;97.39
48027;BME280;50714;49.208;5.364;2022-10-17T02:32:38;99672.47;;;15.28;97.67
48027;BME280;50714;49.208;5.364;2022-10-17T02:42:43;99670.25;;;15.18;96.97
48027;BME280;50714;49.208;5.364;2022-10-17T02:52:45;99667.50;;;15.07;97.03
48027;BME280;50714;49.208;5.364;2022-10-17T03:02:51;99674.53;;;14.96;97.27
48027;BME280;50714;49.208;5.364;2022-10-17T03:12:52;99682.53;;;14.91;97.33
48027;BME280;50714;49.208;5.364;2022-10-17T03:22:52;99684.06;;;14.87;97.22
48027;BME280;50714;49.208;5.364;2022-10-17T03:32:52;99688.44;;;14.88;97.48
48027;BME280;50714;49.208;5.364;2022-10-17T03:42:53;99701.63;;;14.84;97.24
48027;BME280;50714;49.208;5.364;2022-10-17T03:52:53;99703.59;;;14.77;97.11
48027;BME280;50714;49.208;5.364;2022-10-17T04:02:53;99722.66;;;14.71;97.07
48027;BME280;50714;49.208;5.364;2022-10-17T04:12:54;99719.56;;;14.67;96.98
48027;BME280;50714;49.208;5.364;2022-10-17T04:22:54;99717.53;;;14.62;96.99
48027;BME280;50714;49.208;5.364;2022-10-17T04:32:54;99729.38;;;14.68;97.14
48027;BME280;50714;49.208;5.364;2022-10-17T04:42:55;99734.13;;;14.73;97.41
48027;BME280;50714;49.208;5.364;2022-10-17T04:52:55;99730.97;;;14.76;97.34
48027;BME280;50714;49.208;5.364;2022-10-17T05:02:55;99734.75;;;14.75;97.53
48027;BME280;50714;49.208;5.364;2022-10-17T05:12:56;99739.56;;;14.73;97.45
48027;BME280;50714;49.208;5.364;2022-10-17T05:23:00;99752.78;;;14.69;97.24
48027;BME280;50714;49.208;5.364;2022-10-17T05:33:01;99756.31;;;14.70;97.51
48027;BME280;50714;49.208;5.364;2022-10-17T05:43:01;99763.59;;;14.76;98.05
48027;BME280;50714;49.208;5.364;2022-10-17T05:53:01;99761.81;;;14.88;98.53
48027;BME280;50714;49.208;5.364;2022-10-17T06:03:02;99758.78;;;14.96;97.97
48027;BME280;50714;49.208;5.364;2022-10-17T06:13:02;99760.16;;;15.05;98.50
48027;BME280;50714;49.208;5.364;2022-10-17T06:23:02;99797.00;;;15.19;98.15
48027;BME280;50714;49.208;5.364;2022-10-17T06:33:03;99840.28;;;15.21;97.53
48027;BME280;50714;49.208;5.364;2022-10-17T06:43:04;99847.38;;;15.22;97.22
48027;BME280;50714;49.208;5.364;2022-10-17T06:53:04;99836.22;;;15.30;97.56
48027;BME280;50714;49.208;5.364;2022-10-17T07:03:05;99836.97;;;15.55;97.90
48027;BME280;50714;49.208;5.364;2022-10-17T07:13:05;99845.44;;;16.44;100.00
48027;BME280;50714;49.208;5.364;2022-10-17T07:23:06;99887.63;;;19.79;100.00
48027;BME280;50714;49.208;5.364;2022-10-17T07:33:06;99907.47;;;22.87;90.92
48027;BME280;50714;49.208;5.364;2022-10-17T07:43:06;99933.28;;;25.01;82.79
48027;BME280;50714;49.208;5.364;2022-10-17T07:53:07;99953.34;;;26.46;76.38
48027;BME280;50714;49.208;5.364;2022-10-17T08:03:09;99959.53;;;27.51;71.05
48027;BME280;50714;49.208;5.364;2022-10-17T08:13:10;99979.72;;;28.44;66.81
48027;BME280;50714;49.208;5.364;2022-10-17T08:23:10;99987.09;;;29.12;64.49
48027;BME280;50714;49.208;5.364;2022-10-17T08:33:10;99989.84;;;26.91;61.25
48027;BME280;50714;49.208;5.364;2022-10-17T08:53:35;100002.25;;;26.56;64.24
48027;BME280;50714;49.208;5.364;2022-10-17T09:24:18;100015.06;;;29.74;56.12
48027;BME280;50714;49.208;5.364;2022-10-17T09:34:20;100027.34;;;29.14;56.49
48027;BME280;50714;49.208;5.364;2022-10-17T09:44:33;100033.56;;;27.69;55.45
48027;BME280;50714;49.208;5.364;2022-10-17T10:05:00;100064.47;;;25.77;56.93
48027;BME280;50714;49.208;5.364;2022-10-17T10:15:29;100053.72;;;26.28;60.62
48027;BME280;50714;49.208;5.364;2022-10-17T10:25:23;100068.13;;;30.31;57.20
48027;BME280;50714;49.208;5.364;2022-10-17T10:35:33;100089.06;;;29.75;50.44
48027;BME280;50714;49.208;5.364;2022-10-17T10:56:17;100101.63;;;29.36;46.73
48027;BME280;50714;49.208;5.364;2022-10-17T11:06:24;100110.09;;;26.90;53.66
48027;BME280;50714;49.208;5.364;2022-10-17T11:16:36;100122.41;;;26.79;52.91
48027;BME280;50714;49.208;5.364;2022-10-17T11:26:52;100113.50;;;25.66;54.59
48027;BME280;50714;49.208;5.364;2022-10-17T11:36:58;100124.88;;;25.10;56.46
48027;BME280;50714;49.208;5.364;2022-10-17T11:57:31;100136.25;;;24.99;57.87
48027;BME280;50714;49.208;5.364;2022-10-17T12:07:58;100145.03;;;25.11;57.98
48027;BME280;50714;49.208;5.364;2022-10-17T12:18:01;100136.72;;;25.21;58.18
48027;BME280;50714;49.208;5.364;2022-10-17T12:38:22;100112.00;;;24.80;57.88
48027;BME280;50714;49.208;5.364;2022-10-17T12:58:35;100114.66;;;24.26;58.79
48027;BME280;50714;49.208;5.364;2022-10-17T13:08:38;100119.06;;;23.97;59.66
48027;BME280;50714;49.208;5.364;2022-10-17T13:18:51;100135.59;;;23.87;59.87
48027;BME280;50714;49.208;5.364;2022-10-17T13:29:13;100150.75;;;23.79;59.81
48027;BME280;50714;49.208;5.364;2022-10-17T13:39:16;100139.97;;;23.52;60.40
48027;BME280;50714;49.208;5.364;2022-10-17T13:49:33;100153.91;;;23.25;60.82
48027;BME280;50714;49.208;5.364;2022-10-17T13:59:38;100171.53;;;23.14;61.99
48027;BME280;50714;49.208;5.364;2022-10-17T14:09:39;100180.31;;;23.16;62.03
48027;BME280;50714;49.208;5.364;2022-10-17T14:19:39;100180.03;;;23.18;61.81
48027;BME280;50714;49.208;5.364;2022-10-17T14:29:50;100183.63;;;23.13;61.69
48027;BME280;50714;49.208;5.364;2022-10-17T14:39:51;100185.66;;;22.81;62.38
48027;BME280;50714;49.208;5.364;2022-10-17T14:50:05;100205.84;;;22.54;63.08
48027;BME280;50714;49.208;5.364;2022-10-17T15:00:06;100224.13;;;22.33;63.68
48027;BME280;50714;49.208;5.364;2022-10-17T15:20:26;100221.31;;;22.28;64.31
48027;BME280;50714;49.208;5.364;2022-10-17T15:30:33;100222.06;;;22.19;65.18
48027;BME280;50714;49.208;5.364;2022-10-17T15:40:34;100219.47;;;22.07;65.17
48027;BME280;50714;49.208;5.364;2022-10-17T15:50:34;100229.44;;;21.86;65.70
48027;BME280;50714;49.208;5.364;2022-10-17T16:00:35;100233.56;;;21.62;66.60
48027;BME280;50714;49.208;5.364;2022-10-17T16:10:38;100229.75;;;21.41;67.86
48027;BME280;50714;49.208;5.364;2022-10-17T16:20:38;100217.28;;;21.11;68.49
48027;BME280;50714;49.208;5.364;2022-10-17T16:30:42;100226.38;;;20.73;70.14
48027;BME280;50714;49.208;5.364;2022-10-17T16:40:43;100239.44;;;20.50;70.55
48027;BME280;50714;49.208;5.364;2022-10-17T16:50:44;100255.84;;;20.33;70.97
48027;BME280;50714;49.208;5.364;2022-10-17T17:00:44;100270.38;;;20.17;71.17
48027;BME280;50714;49.208;5.364;2022-10-17T17:10:47;100273.78;;;20.07;72.30
48027;BME280;50714;49.208;5.364;2022-10-17T17:20:57;100290.63;;;19.99;73.17
48027;BME280;50714;49.208;5.364;2022-10-17T17:30:57;100290.34;;;19.84;73.72
48027;BME280;50714;49.208;5.364;2022-10-17T17:40:58;100294.44;;;19.69;74.72
48027;BME280;50714;49.208;5.364;2022-10-17T17:51:03;100297.28;;;19.63;76.34
48027;BME280;50714;49.208;5.364;2022-10-17T18:01:16;100305.91;;;19.55;77.80
48027;BME280;50714;49.208;5.364;2022-10-17T18:11:20;100295.06;;;19.48;76.94
48027;BME280;50714;49.208;5.364;2022-10-17T18:21:21;100300.09;;;19.51;76.80
48027;BME280;50714;49.208;5.364;2022-10-17T18:31:23;100311.53;;;19.36;77.91
48027;BME280;50714;49.208;5.364;2022-10-17T18:41:27;100306.28;;;19.35;78.20
48027;BME280;50714;49.208;5.364;2022-10-17T18:51:27;100306.19;;;19.18;78.52
48027;BME280;50714;49.208;5.364;2022-10-17T19:01:28;100320.34;;;19.15;79.35
48027;BME280;50714;49.208;5.364;2022-10-17T19:11:30;100311.56;;;19.13;79.23
48027;BME280;50714;49.208;5.364;2022-10-17T19:21:31;100308.09;;;19.06;80.08
48027;BME280;50714;49.208;5.364;2022-10-17T19:31:32;100319.75;;;19.01;80.36
48027;BME280;50714;49.208;5.364;2022-10-17T19:41:33;100323.19;;;18.97;81.09
48027;BME280;50714;49.208;5.364;2022-10-17T19:51:36;100346.28;;;18.89;81.35
48027;BME280;50714;49.208;5.364;2022-10-17T20:01:37;100330.34;;;18.86;82.17
48027;BME280;50714;49.208;5.364;2022-10-17T20:11:38;100334.03;;;18.80;82.94
48027;BME280;50714;49.208;5.364;2022-10-17T20:21:38;100318.56;;;18.62;83.92
48027;BME280;50714;49.208;5.364;2022-10-17T20:31:40;100311.88;;;18.58;84.11
48027;BME280;50714;49.208;5.364;2022-10-17T20:41:42;100310.31;;;18.51;84.96
48027;BME280;50714;49.208;5.364;2022-10-17T20:51:43;100295.66;;;18.45;85.70
48027;BME280;50714;49.208;5.364;2022-10-17T21:01:44;100299.97;;;18.41;85.86
48027;BME280;50714;49.208;5.364;2022-10-17T21:11:45;100303.53;;;18.42;86.24
48027;BME280;50714;49.208;5.364;2022-10-17T21:21:45;100320.41;;;18.38;86.68
48027;BME280;50714;49.208;5.364;2022-10-17T21:31:46;100330.38;;;18.45;87.30
48027;BME280;50714;49.208;5.364;2022-10-17T21:41:46;100325.63;;;18.40;87.03
48027;BME280;50714;49.208;5.364;2022-10-17T21:51:47;100323.00;;;18.33;87.76
48027;BME280;50714;49.208;5.364;2022-10-17T22:01:48;100336.06;;;18.31;88.32
48027;BME280;50714;49.208;5.364;2022-10-17T22:11:51;100311.56;;;18.25;88.41
48027;BME280;50714;49.208;5.364;2022-10-17T22:21:53;100260.69;;;18.12;89.32
48027;BME280;50714;49.208;5.364;2022-10-17T22:31:53;100251.63;;;18.00;90.77
48027;BME280;50714;49.208;5.364;2022-10-17T22:41:53;100249.84;;;18.05;91.24
48027;BME280;50714;49.208;5.364;2022-10-17T22:51:54;100243.88;;;17.97;93.09
48027;BME280;50714;49.208;5.364;2022-10-17T23:01:54;100224.78;;;17.97;92.76
48027;BME280;50714;49.208;5.364;2022-10-17T23:11:54;100222.41;;;18.00;93.11
48027;BME280;50714;49.208;5.364;2022-10-17T23:21:55;100247.72;;;18.08;92.62
48027;BME280;50714;49.208;5.364;2022-10-17T23:31:55;100265.69;;;18.15;92.43
48027;BME280;50714;49.208;5.364;2022-10-17T23:41:56;100287.09;;;18.18;92.28
48027;BME280;50714;49.208;5.364;2022-10-17T23:51:56;100325.78;;;18.15;91.84
